sensor_id;sensor_type;location;lat;lon;timestamp;temperature;humidity
12833;DHT22;6483;51.310;4.462;2022-12-20T00:01:31;11.80;99.90
12833;DHT22;6483;51.310;4.462;2022-12-20T00:04:00;11.80;99.90
12833;DHT22;6483;51.310;4.462;2022-12-20T00:06:27;11.80;99.90
12833;DHT22;6483;51.310;4.462;2022-12-20T00:08:59;11.80;99.90
12833;DHT22;6483;51.310;4.462;2022-12-20T00:11:26;11.90;99.90
12833;DHT22;6483;51.310;4.462;2022-12-20T00:13:52;11.90;99.90
12833;DHT22;6483;51.310;4.462;2022-12-20T00:16:21;11.90;99.90
12833;DHT22;6483;51.310;4.462;2022-12-20T00:18:51;11.90;99.90
12833;DHT22;6483;51.310;4.462;2022-12-20T00:21:20;11.80;99.90
12833;DHT22;6483;51.310;4.462;2022-12-20T00:23:46;11.70;99.90
12833;DHT22;6483;51.310;4.462;2022-12-20T00:26:15;11.60;99.90
12833;DHT22;6483;51.310;4.462;2022-12-20T00:28:42;11.40;99.90
12833;DHT22;6483;51.310;4.462;2022-12-20T00:31:13;11.30;99.90
12833;DHT22;6483;51.310;4.462;2022-12-20T00:33:42;11.10;99.90
12833;DHT22;6483;51.310;4.462;2022-12-20T00:36:09;11.00;99.90
12833;DHT22;6483;51.310;4.462;2022-12-20T00:38:37;10.90;99.90
12833;DHT22;6483;51.310;4.462;2022-12-20T00:41:09;10.90;99.90
12833;DHT22;6483;51.310;4.462;2022-12-20T00:43:36;10.80;99.90
12833;DHT22;6483;51.310;4.462;2022-12-20T00:46:03;10.70;99.90
12833;DHT22;6483;51.310;4.462;2022-12-20T00:48:30;10.70;99.90
12833;DHT22;6483;51.310;4.462;2022-12-20T00:51:07;10.70;99.90
12833;DHT22;6483;51.310;4.462;2022-12-20T00:53:37;10.70;99.90
12833;DHT22;6483;51.310;4.462;2022-12-20T00:56:04;10.60;99.90
12833;DHT22;6483;51.310;4.462;2022-12-20T00:58:36;10.50;99.90
12833;DHT22;6483;51.310;4.462;2022-12-20T01:01:05;10.50;99.90
12833;DHT22;6483;51.310;4.462;2022-12-20T01:03:32;10.50;99.90
12833;DHT22;6483;51.310;4.462;2022-12-20T01:06:08;10.50;99.90
12833;DHT22;6483;51.310;4.462;2022-12-20T01:08:34;10.50;99.90
12833;DHT22;6483;51.310;4.462;2022-12-20T01:13:37;10.50;99.90
12833;DHT22;6483;51.310;4.462;2022-12-20T01:18:31;10.60;99.90
12833;DHT22;6483;51.310;4.462;2022-12-20T01:21:06;10.70;99.90
12833;DHT22;6483;51.310;4.462;2022-12-20T01:23:33;10.90;99.90
12833;DHT22;6483;51.310;4.462;2022-12-20T01:26:00;10.90;99.90
12833;DHT22;6483;51.310;4.462;2022-12-20T01:28:27;10.90;99.90
12833;DHT22;6483;51.310;4.462;2022-12-20T01:30:57;10.90;99.90
12833;DHT22;6483;51.310;4.462;2022-12-20T01:33:24;11.10;99.90
12833;DHT22;6483;51.310;4.462;2022-12-20T01:36:00;11.10;99.90
12833;DHT22;6483;51.310;4.462;2022-12-20T01:38:29;11.10;99.90
12833;DHT22;6483;51.310;4.462;2022-12-20T01:40:55;11.10;99.90
12833;DHT22;6483;51.310;4.462;2022-12-20T01:44:47;11.20;99.90
12833;DHT22;6483;51.310;4.462;2022-12-20T01:46:53;11.10;99.90
12833;DHT22;6483;51.310;4.462;2022-12-20T01:49:35;11.20;99.90
12833;DHT22;6483;51.310;4.462;2022-12-20T01:52:07;11.10;99.90
12833;DHT22;6483;51.310;4.462;2022-12-20T01:54:47;11.20;99.90
12833;DHT22;6483;51.310;4.462;2022-12-20T01:57:30;11.20;99.90
12833;DHT22;6483;51.310;4.462;2022-12-20T02:00:00;11.20;99.90
12833;DHT22;6483;51.310;4.462;2022-12-20T02:02:31;11.20;99.90
12833;DHT22;6483;51.310;4.462;2022-12-20T02:04:58;11.30;99.90
12833;DHT22;6483;51.310;4.462;2022-12-20T02:07:30;11.40;99.90
12833;DHT22;6483;51.310;4.462;2022-12-20T02:10:00;11.40;99.90
12833;DHT22;6483;51.310;4.462;2022-12-20T02:12:38;11.40;99.90
12833;DHT22;6483;51.310;4.462;2022-12-20T02:18:22;11.40;99.90
12833;DHT22;6483;51.310;4.462;2022-12-20T02:27:40;11.40;99.90
12833;DHT22;6483;51.310;4.462;2022-12-20T02:30:20;11.30;99.90
12833;DHT22;6483;51.310;4.462;2022-12-20T02:35:30;11.10;99.90
12833;DHT22;6483;51.310;4.462;2022-12-20T02:38:02;11.00;99.90
12833;DHT22;6483;51.310;4.462;2022-12-20T02:43:40;10.80;99.90
12833;DHT22;6483;51.310;4.462;2022-12-20T02:46:25;10.70;99.90
12833;DHT22;6483;51.310;4.462;2022-12-20T02:48:53;10.70;99.90
12833;DHT22;6483;51.310;4.462;2022-12-20T02:51:25;10.80;99.90
12833;DHT22;6483;51.310;4.462;2022-12-20T02:53:51;11.00;99.90
12833;DHT22;6483;51.310;4.462;2022-12-20T02:56:29;11.00;99.90
12833;DHT22;6483;51.310;4.462;2022-12-20T02:59:41;11.00;99.90
12833;DHT22;6483;51.310;4.462;2022-12-20T03:02:06;11.00;99.90
12833;DHT22;6483;51.310;4.462;2022-12-20T03:04:38;11.00;99.90
12833;DHT22;6483;51.310;4.462;2022-12-20T03:07:12;10.90;99.90
12833;DHT22;6483;51.310;4.462;2022-12-20T03:09:40;11.00;99.90
12833;DHT22;6483;51.310;4.462;2022-12-20T03:12:07;11.10;99.90
12833;DHT22;6483;51.310;4.462;2022-12-20T03:14:35;11.20;99.90
12833;DHT22;6483;51.310;4.462;2022-12-20T03:17:00;11.30;99.90
12833;DHT22;6483;51.310;4.462;2022-12-20T03:19:26;11.40;99.90
12833;DHT22;6483;51.310;4.462;2022-12-20T03:21:52;11.50;99.90
12833;DHT22;6483;51.310;4.462;2022-12-20T03:24:18;11.60;99.90
12833;DHT22;6483;51.310;4.462;2022-12-20T03:26:44;11.60;99.90
12833;DHT22;6483;51.310;4.462;2022-12-20T03:29:10;11.80;99.90
12833;DHT22;6483;51.310;4.462;2022-12-20T03:31:39;11.90;99.90
12833;DHT22;6483;51.310;4.462;2022-12-20T03:34:05;12.00;99.90
12833;DHT22;6483;51.310;4.462;2022-12-20T03:36:34;12.00;99.90
12833;DHT22;6483;51.310;4.462;2022-12-20T03:39:00;12.00;99.90
12833;DHT22;6483;51.310;4.462;2022-12-20T03:41:26;12.10;99.90
12833;DHT22;6483;51.310;4.462;2022-12-20T03:43:57;12.10;99.90
12833;DHT22;6483;51.310;4.462;2022-12-20T03:46:25;12.10;99.90
12833;DHT22;6483;51.310;4.462;2022-12-20T03:48:52;12.20;99.90
12833;DHT22;6483;51.310;4.462;2022-12-20T03:51:20;12.20;99.90
12833;DHT22;6483;51.310;4.462;2022-12-20T03:53:49;12.20;99.90
12833;DHT22;6483;51.310;4.462;2022-12-20T03:56:18;12.10;99.90
12833;DHT22;6483;51.310;4.462;2022-12-20T03:58:47;12.10;99.90
12833;DHT22;6483;51.310;4.462;2022-12-20T04:01:21;12.10;99.90
12833;DHT22;6483;51.310;4.462;2022-12-20T04:03:47;12.10;99.90
12833;DHT22;6483;51.310;4.462;2022-12-20T04:06:17;12.20;99.90
12833;DHT22;6483;51.310;4.462;2022-12-20T04:08:43;12.20;99.90
12833;DHT22;6483;51.310;4.462;2022-12-20T04:11:09;12.00;99.90
12833;DHT22;6483;51.310;4.462;2022-12-20T04:13:45;11.90;99.90
12833;DHT22;6483;51.310;4.462;2022-12-20T04:16:13;11.80;99.90
12833;DHT22;6483;51.310;4.462;2022-12-20T04:18:39;11.70;99.90
12833;DHT22;6483;51.310;4.462;2022-12-20T04:21:06;11.70;99.90
12833;DHT22;6483;51.310;4.462;2022-12-20T04:23:36;11.80;99.90
12833;DHT22;6483;51.310;4.462;2022-12-20T04:26:04;11.80;99.90
12833;DHT22;6483;51.310;4.462;2022-12-20T04:28:30;11.90;99.90
12833;DHT22;6483;51.310;4.462;2022-12-20T04:30:56;12.00;99.90
12833;DHT22;6483;51.310;4.462;2022-12-20T04:33:26;12.00;99.90
12833;DHT22;6483;51.310;4.462;2022-12-20T04:35:53;12.10;99.90
12833;DHT22;6483;51.310;4.462;2022-12-20T04:38:22;12.20;99.90
12833;DHT22;6483;51.310;4.462;2022-12-20T04:40:49;12.30;99.90
12833;DHT22;6483;51.310;4.462;2022-12-20T04:43:20;12.20;99.90
12833;DHT22;6483;51.310;4.462;2022-12-20T04:45:50;12.30;99.90
12833;DHT22;6483;51.310;4.462;2022-12-20T04:48:18;12.20;99.90
12833;DHT22;6483;51.310;4.462;2022-12-20T04:50:48;12.30;99.90
12833;DHT22;6483;51.310;4.462;2022-12-20T04:53:17;12.20;99.90
12833;DHT22;6483;51.310;4.462;2022-12-20T04:56:02;12.30;99.90
12833;DHT22;6483;51.310;4.462;2022-12-20T04:58:31;12.30;99.90
12833;DHT22;6483;51.310;4.462;2022-12-20T05:00:57;12.30;99.90
12833;DHT22;6483;51.310;4.462;2022-12-20T05:03:25;12.30;99.90
12833;DHT22;6483;51.310;4.462;2022-12-20T05:06:00;12.40;99.90
12833;DHT22;6483;51.310;4.462;2022-12-20T05:08:26;12.40;99.90
12833;DHT22;6483;51.310;4.462;2022-12-20T05:10:55;12.40;99.90
12833;DHT22;6483;51.310;4.462;2022-12-20T05:13:21;12.30;99.90
12833;DHT22;6483;51.310;4.462;2022-12-20T05:15:52;12.40;99.90
12833;DHT22;6483;51.310;4.462;2022-12-20T05:18:21;12.40;99.90
12833;DHT22;6483;51.310;4.462;2022-12-20T05:20:47;12.40;99.90
12833;DHT22;6483;51.310;4.462;2022-12-20T05:23:13;12.40;99.90
12833;DHT22;6483;51.310;4.462;2022-12-20T05:26:00;12.40;99.90
12833;DHT22;6483;51.310;4.462;2022-12-20T05:28:44;12.40;99.90
12833;DHT22;6483;51.310;4.462;2022-12-20T05:31:13;12.40;99.90
12833;DHT22;6483;51.310;4.462;2022-12-20T05:33:39;12.50;99.90
12833;DHT22;6483;51.310;4.462;2022-12-20T05:36:05;12.50;99.90
12833;DHT22;6483;51.310;4.462;2022-12-20T05:38:31;12.50;99.90
12833;DHT22;6483;51.310;4.462;2022-12-20T05:40:56;12.40;99.90
12833;DHT22;6483;51.310;4.462;2022-12-20T05:43:25;12.50;99.90
12833;DHT22;6483;51.310;4.462;2022-12-20T05:45:54;12.40;99.90
12833;DHT22;6483;51.310;4.462;2022-12-20T05:48:20;12.30;99.90
12833;DHT22;6483;51.310;4.462;2022-12-20T05:50:47;12.30;99.90
12833;DHT22;6483;51.310;4.462;2022-12-20T05:53:14;12.20;99.90
12833;DHT22;6483;51.310;4.462;2022-12-20T05:55:51;12.10;99.90
12833;DHT22;6483;51.310;4.462;2022-12-20T05:58:17;12.10;99.90
12833;DHT22;6483;51.310;4.462;2022-12-20T06:00:44;12.10;99.90
12833;DHT22;6483;51.310;4.462;2022-12-20T06:03:10;12.10;99.90
12833;DHT22;6483;51.310;4.462;2022-12-20T06:05:37;12.10;99.90
12833;DHT22;6483;51.310;4.462;2022-12-20T06:08:09;12.10;99.90
12833;DHT22;6483;51.310;4.462;2022-12-20T06:10:36;12.10;99.90
12833;DHT22;6483;51.310;4.462;2022-12-20T06:13:02;12.10;99.90
12833;DHT22;6483;51.310;4.462;2022-12-20T06:15:29;12.10;99.90
12833;DHT22;6483;51.310;4.462;2022-12-20T06:17:55;12.00;99.90
12833;DHT22;6483;51.310;4.462;2022-12-20T06:20:24;12.00;99.90
12833;DHT22;6483;51.310;4.462;2022-12-20T06:22:50;12.10;99.90
12833;DHT22;6483;51.310;4.462;2022-12-20T06:25:17;12.10;99.90
12833;DHT22;6483;51.310;4.462;2022-12-20T06:27:43;12.10;99.90
12833;DHT22;6483;51.310;4.462;2022-12-20T06:30:15;12.10;99.90
12833;DHT22;6483;51.310;4.462;2022-12-20T06:32:44;12.20;99.90
12833;DHT22;6483;51.310;4.462;2022-12-20T06:35:11;12.30;99.90
12833;DHT22;6483;51.310;4.462;2022-12-20T06:37:37;12.30;99.90
12833;DHT22;6483;51.310;4.462;2022-12-20T06:40:09;12.30;99.90
12833;DHT22;6483;51.310;4.462;2022-12-20T06:42:37;12.20;99.90
12833;DHT22;6483;51.310;4.462;2022-12-20T06:45:08;12.30;99.90
12833;DHT22;6483;51.310;4.462;2022-12-20T06:47:35;12.30;99.90
12833;DHT22;6483;51.310;4.462;2022-12-20T06:50:04;12.30;99.90
12833;DHT22;6483;51.310;4.462;2022-12-20T06:52:32;12.50;99.90
12833;DHT22;6483;51.310;4.462;2022-12-20T06:54:57;12.50;99.90
12833;DHT22;6483;51.310;4.462;2022-12-20T06:57:23;12.60;99.90
12833;DHT22;6483;51.310;4.462;2022-12-20T06:59:49;12.60;99.90
12833;DHT22;6483;51.310;4.462;2022-12-20T07:02:16;12.60;99.90
12833;DHT22;6483;51.310;4.462;2022-12-20T07:04:44;12.40;99.90
12833;DHT22;6483;51.310;4.462;2022-12-20T07:07:11;12.30;99.90
12833;DHT22;6483;51.310;4.462;2022-12-20T07:09:40;12.20;99.90
12833;DHT22;6483;51.310;4.462;2022-12-20T07:12:08;12.10;99.90
12833;DHT22;6483;51.310;4.462;2022-12-20T07:14:34;12.10;99.90
12833;DHT22;6483;51.310;4.462;2022-12-20T07:17:01;12.10;99.90
12833;DHT22;6483;51.310;4.462;2022-12-20T07:19:26;12.10;99.90
12833;DHT22;6483;51.310;4.462;2022-12-20T07:21:52;12.00;99.90
12833;DHT22;6483;51.310;4.462;2022-12-20T07:24:19;12.00;99.90
12833;DHT22;6483;51.310;4.462;2022-12-20T07:26:44;12.00;99.90
12833;DHT22;6483;51.310;4.462;2022-12-20T07:29:11;11.80;99.90
12833;DHT22;6483;51.310;4.462;2022-12-20T07:31:37;11.70;99.90
12833;DHT22;6483;51.310;4.462;2022-12-20T07:34:03;11.60;99.90
12833;DHT22;6483;51.310;4.462;2022-12-20T07:36:31;11.40;99.90
12833;DHT22;6483;51.310;4.462;2022-12-20T07:38:57;11.20;99.90
12833;DHT22;6483;51.310;4.462;2022-12-20T07:41:23;11.10;99.90
12833;DHT22;6483;51.310;4.462;2022-12-20T07:43:50;11.00;99.90
12833;DHT22;6483;51.310;4.462;2022-12-20T07:46:20;10.90;99.90
12833;DHT22;6483;51.310;4.462;2022-12-20T07:48:46;10.80;99.90
12833;DHT22;6483;51.310;4.462;2022-12-20T07:51:27;10.70;99.90
12833;DHT22;6483;51.310;4.462;2022-12-20T07:54:19;10.70;99.90
12833;DHT22;6483;51.310;4.462;2022-12-20T07:56:51;10.70;99.90
12833;DHT22;6483;51.310;4.462;2022-12-20T07:59:24;10.60;99.90
12833;DHT22;6483;51.310;4.462;2022-12-20T08:01:53;10.60;99.90
12833;DHT22;6483;51.310;4.462;2022-12-20T08:04:23;10.60;99.90
12833;DHT22;6483;51.310;4.462;2022-12-20T08:06:52;10.50;99.90
12833;DHT22;6483;51.310;4.462;2022-12-20T08:09:20;10.50;99.90
12833;DHT22;6483;51.310;4.462;2022-12-20T08:11:48;10.50;99.90
12833;DHT22;6483;51.310;4.462;2022-12-20T08:14:16;10.50;99.90
12833;DHT22;6483;51.310;4.462;2022-12-20T08:16:42;10.50;99.90
12833;DHT22;6483;51.310;4.462;2022-12-20T08:19:08;10.50;99.90
12833;DHT22;6483;51.310;4.462;2022-12-20T08:21:34;10.40;99.90
12833;DHT22;6483;51.310;4.462;2022-12-20T08:24:00;10.40;99.90
12833;DHT22;6483;51.310;4.462;2022-12-20T08:26:25;10.40;99.90
12833;DHT22;6483;51.310;4.462;2022-12-20T08:28:52;10.40;99.90
12833;DHT22;6483;51.310;4.462;2022-12-20T08:31:18;10.40;99.90
12833;DHT22;6483;51.310;4.462;2022-12-20T08:33:44;10.40;99.90
12833;DHT22;6483;51.310;4.462;2022-12-20T08:36:11;10.40;99.90
12833;DHT22;6483;51.310;4.462;2022-12-20T08:38:38;10.40;99.90
12833;DHT22;6483;51.310;4.462;2022-12-20T08:41:09;10.40;99.90
12833;DHT22;6483;51.310;4.462;2022-12-20T08:43:35;10.40;99.90
12833;DHT22;6483;51.310;4.462;2022-12-20T08:46:01;10.40;99.90
12833;DHT22;6483;51.310;4.462;2022-12-20T08:48:27;10.40;99.90
12833;DHT22;6483;51.310;4.462;2022-12-20T08:51:04;10.30;99.90
12833;DHT22;6483;51.310;4.462;2022-12-20T08:53:31;10.40;99.90
12833;DHT22;6483;51.310;4.462;2022-12-20T08:56:12;10.40;99.90
12833;DHT22;6483;51.310;4.462;2022-12-20T08:58:39;10.40;99.90
12833;DHT22;6483;51.310;4.462;2022-12-20T09:01:07;10.40;99.90
12833;DHT22;6483;51.310;4.462;2022-12-20T09:03:34;10.40;99.90
12833;DHT22;6483;51.310;4.462;2022-12-20T09:06:03;10.40;99.90
12833;DHT22;6483;51.310;4.462;2022-12-20T09:08:32;10.40;99.90
12833;DHT22;6483;51.310;4.462;2022-12-20T09:11:05;10.40;99.90
12833;DHT22;6483;51.310;4.462;2022-12-20T09:13:31;10.50;99.90
12833;DHT22;6483;51.310;4.462;2022-12-20T09:16:00;10.40;99.90
12833;DHT22;6483;51.310;4.462;2022-12-20T09:18:26;10.40;99.90
12833;DHT22;6483;51.310;4.462;2022-12-20T09:20:51;10.40;99.90
12833;DHT22;6483;51.310;4.462;2022-12-20T09:23:17;10.40;99.90
12833;DHT22;6483;51.310;4.462;2022-12-20T09:25:43;10.50;99.90
12833;DHT22;6483;51.310;4.462;2022-12-20T09:28:08;10.50;99.90
12833;DHT22;6483;51.310;4.462;2022-12-20T09:30:34;10.40;99.90
12833;DHT22;6483;51.310;4.462;2022-12-20T09:33:00;10.50;99.90
12833;DHT22;6483;51.310;4.462;2022-12-20T09:35:26;10.50;99.90
12833;DHT22;6483;51.310;4.462;2022-12-20T09:37:52;10.50;99.90
12833;DHT22;6483;51.310;4.462;2022-12-20T09:40:20;10.60;99.90
12833;DHT22;6483;51.310;4.462;2022-12-20T09:42:47;10.60;99.90
12833;DHT22;6483;51.310;4.462;2022-12-20T09:45:28;10.70;99.90
12833;DHT22;6483;51.310;4.462;2022-12-20T09:47:56;10.80;99.90
12833;DHT22;6483;51.310;4.462;2022-12-20T09:50:43;10.80;99.90
12833;DHT22;6483;51.310;4.462;2022-12-20T09:56:19;10.90;99.90
12833;DHT22;6483;51.310;4.462;2022-12-20T09:59:09;10.80;99.90
12833;DHT22;6483;51.310;4.462;2022-12-20T10:01:35;10.80;99.90
12833;DHT22;6483;51.310;4.462;2022-12-20T10:04:13;10.80;99.90
12833;DHT22;6483;51.310;4.462;2022-12-20T10:12:19;10.70;99.90
12833;DHT22;6483;51.310;4.462;2022-12-20T10:15:19;10.70;99.90
12833;DHT22;6483;51.310;4.462;2022-12-20T10:20:56;10.70;99.90
12833;DHT22;6483;51.310;4.462;2022-12-20T10:26:32;10.60;99.90
12833;DHT22;6483;51.310;4.462;2022-12-20T10:28:58;10.60;99.90
12833;DHT22;6483;51.310;4.462;2022-12-20T10:31:24;10.60;99.90
12833;DHT22;6483;51.310;4.462;2022-12-20T10:33:50;10.60;99.90
12833;DHT22;6483;51.310;4.462;2022-12-20T10:38:50;10.60;99.90
12833;DHT22;6483;51.310;4.462;2022-12-20T10:41:19;10.60;99.90
12833;DHT22;6483;51.310;4.462;2022-12-20T10:43:52;10.60;99.90
12833;DHT22;6483;51.310;4.462;2022-12-20T10:46:19;10.60;99.90
12833;DHT22;6483;51.310;4.462;2022-12-20T10:48:47;10.60;99.90
12833;DHT22;6483;51.310;4.462;2022-12-20T10:51:20;10.60;99.90
12833;DHT22;6483;51.310;4.462;2022-12-20T10:53:58;10.60;99.90
12833;DHT22;6483;51.310;4.462;2022-12-20T10:56:33;10.60;99.90
12833;DHT22;6483;51.310;4.462;2022-12-20T11:01:43;10.70;99.90
12833;DHT22;6483;51.310;4.462;2022-12-20T11:04:39;10.60;99.90
12833;DHT22;6483;51.310;4.462;2022-12-20T11:07:24;10.60;99.90
12833;DHT22;6483;51.310;4.462;2022-12-20T11:09:55;10.60;99.90
12833;DHT22;6483;51.310;4.462;2022-12-20T11:12:21;10.60;99.90
12833;DHT22;6483;51.310;4.462;2022-12-20T11:14:47;10.60;99.90
12833;DHT22;6483;51.310;4.462;2022-12-20T11:31:19;10.60;99.90
12833;DHT22;6483;51.310;4.462;2022-12-20T11:38:56;10.70;99.90
12833;DHT22;6483;51.310;4.462;2022-12-20T11:52:46;10.70;99.90
12833;DHT22;6483;51.310;4.462;2022-12-20T11:55:32;10.80;99.90
12833;DHT22;6483;51.310;4.462;2022-12-20T12:00:28;10.80;99.90
12833;DHT22;6483;51.310;4.462;2022-12-20T12:02:59;10.80;99.90
12833;DHT22;6483;51.310;4.462;2022-12-20T12:05:43;10.80;99.90
12833;DHT22;6483;51.310;4.462;2022-12-20T12:08:33;10.80;99.90
12833;DHT22;6483;51.310;4.462;2022-12-20T12:11:12;10.80;99.90
12833;DHT22;6483;51.310;4.462;2022-12-20T12:13:39;10.80;99.90
12833;DHT22;6483;51.310;4.462;2022-12-20T12:16:22;10.70;99.90
12833;DHT22;6483;51.310;4.462;2022-12-20T12:18:48;10.70;99.90
12833;DHT22;6483;51.310;4.462;2022-12-20T12:24:17;10.70;99.90
12833;DHT22;6483;51.310;4.462;2022-12-20T12:26:44;10.70;99.90
12833;DHT22;6483;51.310;4.462;2022-12-20T12:29:13;10.70;99.90
12833;DHT22;6483;51.310;4.462;2022-12-20T12:31:50;10.70;99.90
12833;DHT22;6483;51.310;4.462;2022-12-20T12:40:38;10.60;99.90
12833;DHT22;6483;51.310;4.462;2022-12-20T12:45:58;10.60;99.90
12833;DHT22;6483;51.310;4.462;2022-12-20T12:48:48;10.60;99.90
12833;DHT22;6483;51.310;4.462;2022-12-20T12:51:39;10.60;99.90
12833;DHT22;6483;51.310;4.462;2022-12-20T12:54:22;10.60;99.90
12833;DHT22;6483;51.310;4.462;2022-12-20T12:56:50;10.50;99.90
12833;DHT22;6483;51.310;4.462;2022-12-20T12:59:44;10.60;99.90
12833;DHT22;6483;51.310;4.462;2022-12-20T13:05:00;10.50;99.90
12833;DHT22;6483;51.310;4.462;2022-12-20T13:17:51;10.50;99.90
12833;DHT22;6483;51.310;4.462;2022-12-20T13:20:34;10.50;99.90
12833;DHT22;6483;51.310;4.462;2022-12-20T13:25:48;10.50;99.90
12833;DHT22;6483;51.310;4.462;2022-12-20T13:33:47;10.50;99.90
12833;DHT22;6483;51.310;4.462;2022-12-20T13:38:49;10.50;99.90
12833;DHT22;6483;51.310;4.462;2022-12-20T13:41:34;10.50;99.90
12833;DHT22;6483;51.310;4.462;2022-12-20T13:44:40;10.50;99.90
12833;DHT22;6483;51.310;4.462;2022-12-20T13:47:27;10.50;99.90
12833;DHT22;6483;51.310;4.462;2022-12-20T13:49:54;10.50;99.90
12833;DHT22;6483;51.310;4.462;2022-12-20T13:52:38;10.50;99.90
12833;DHT22;6483;51.310;4.462;2022-12-20T13:55:25;10.50;99.90
12833;DHT22;6483;51.310;4.462;2022-12-20T13:57:51;10.60;99.90
12833;DHT22;6483;51.310;4.462;2022-12-20T14:00:22;10.60;99.90
12833;DHT22;6483;51.310;4.462;2022-12-20T14:02:50;10.50;99.90
12833;DHT22;6483;51.310;4.462;2022-12-20T14:05:25;10.50;99.90
12833;DHT22;6483;51.310;4.462;2022-12-20T14:08:04;10.50;99.90
12833;DHT22;6483;51.310;4.462;2022-12-20T14:10:32;10.50;99.90
12833;DHT22;6483;51.310;4.462;2022-12-20T14:12:58;10.50;99.90
12833;DHT22;6483;51.310;4.462;2022-12-20T14:15:27;10.50;99.90
12833;DHT22;6483;51.310;4.462;2022-12-20T14:17:53;10.50;99.90
12833;DHT22;6483;51.310;4.462;2022-12-20T14:20:29;10.50;99.90
12833;DHT22;6483;51.310;4.462;2022-12-20T14:23:01;10.50;99.90
12833;DHT22;6483;51.310;4.462;2022-12-20T14:27:59;10.50;99.90
12833;DHT22;6483;51.310;4.462;2022-12-20T14:30:41;10.50;99.90
12833;DHT22;6483;51.310;4.462;2022-12-20T14:33:27;10.50;99.90
12833;DHT22;6483;51.310;4.462;2022-12-20T14:35:57;10.50;99.90
12833;DHT22;6483;51.310;4.462;2022-12-20T14:38:31;10.50;99.90
12833;DHT22;6483;51.310;4.462;2022-12-20T14:40:57;10.60;99.90
12833;DHT22;6483;51.310;4.462;2022-12-20T14:43:34;10.60;99.90
12833;DHT22;6483;51.310;4.462;2022-12-20T14:46:19;10.60;99.90
12833;DHT22;6483;51.310;4.462;2022-12-20T14:48:47;10.50;99.90
12833;DHT22;6483;51.310;4.462;2022-12-20T14:51:18;10.60;99.90
12833;DHT22;6483;51.310;4.462;2022-12-20T14:53:58;10.50;99.90
12833;DHT22;6483;51.310;4.462;2022-12-20T14:56:24;10.60;99.90
12833;DHT22;6483;51.310;4.462;2022-12-20T14:59:23;10.50;99.90
12833;DHT22;6483;51.310;4.462;2022-12-20T15:01:50;10.50;99.90
12833;DHT22;6483;51.310;4.462;2022-12-20T15:04:32;10.50;99.90
12833;DHT22;6483;51.310;4.462;2022-12-20T15:07:02;10.50;99.90
12833;DHT22;6483;51.310;4.462;2022-12-20T15:09:28;10.50;99.90
12833;DHT22;6483;51.310;4.462;2022-12-20T15:11:55;10.50;99.90
12833;DHT22;6483;51.310;4.462;2022-12-20T15:14:32;10.50;99.90
12833;DHT22;6483;51.310;4.462;2022-12-20T15:17:00;10.40;99.90
12833;DHT22;6483;51.310;4.462;2022-12-20T15:19:26;10.40;99.90
12833;DHT22;6483;51.310;4.462;2022-12-20T15:21:52;10.40;99.90
12833;DHT22;6483;51.310;4.462;2022-12-20T15:24:20;10.40;99.90
12833;DHT22;6483;51.310;4.462;2022-12-20T15:26:48;10.40;99.90
12833;DHT22;6483;51.310;4.462;2022-12-20T15:29:16;10.50;99.90
12833;DHT22;6483;51.310;4.462;2022-12-20T15:31:43;10.50;99.90
12833;DHT22;6483;51.310;4.462;2022-12-20T15:34:28;10.40;99.90
12833;DHT22;6483;51.310;4.462;2022-12-20T15:36:55;10.40;99.90
12833;DHT22;6483;51.310;4.462;2022-12-20T15:39:25;10.40;99.90
12833;DHT22;6483;51.310;4.462;2022-12-20T15:41:51;10.40;99.90
12833;DHT22;6483;51.310;4.462;2022-12-20T15:44:22;10.40;99.90
12833;DHT22;6483;51.310;4.462;2022-12-20T15:46:49;10.40;99.90
12833;DHT22;6483;51.310;4.462;2022-12-20T15:49:20;10.40;99.90
12833;DHT22;6483;51.310;4.462;2022-12-20T15:51:48;10.30;99.90
12833;DHT22;6483;51.310;4.462;2022-12-20T15:54:26;10.30;99.90
12833;DHT22;6483;51.310;4.462;2022-12-20T15:56:57;10.30;99.90
12833;DHT22;6483;51.310;4.462;2022-12-20T15:59:23;10.30;99.90
12833;DHT22;6483;51.310;4.462;2022-12-20T16:01:49;10.30;99.90
12833;DHT22;6483;51.310;4.462;2022-12-20T16:04:19;10.30;99.90
12833;DHT22;6483;51.310;4.462;2022-12-20T16:06:47;10.30;99.90
12833;DHT22;6483;51.310;4.462;2022-12-20T16:09:13;10.40;99.90
12833;DHT22;6483;51.310;4.462;2022-12-20T16:11:39;10.40;99.90
12833;DHT22;6483;51.310;4.462;2022-12-20T16:14:05;10.40;99.90
12833;DHT22;6483;51.310;4.462;2022-12-20T16:16:33;10.40;99.90
12833;DHT22;6483;51.310;4.462;2022-12-20T16:19:00;10.40;99.90
12833;DHT22;6483;51.310;4.462;2022-12-20T16:21:32;10.40;99.90
12833;DHT22;6483;51.310;4.462;2022-12-20T16:23:59;10.30;99.90
12833;DHT22;6483;51.310;4.462;2022-12-20T16:26:26;10.40;99.90
12833;DHT22;6483;51.310;4.462;2022-12-20T16:28:53;10.40;99.90
12833;DHT22;6483;51.310;4.462;2022-12-20T16:33:52;10.40;99.90
12833;DHT22;6483;51.310;4.462;2022-12-20T16:36:18;10.40;99.90
12833;DHT22;6483;51.310;4.462;2022-12-20T16:38:44;10.40;99.90
12833;DHT22;6483;51.310;4.462;2022-12-20T16:41:12;10.40;99.90
12833;DHT22;6483;51.310;4.462;2022-12-20T16:43:39;10.40;99.90
12833;DHT22;6483;51.310;4.462;2022-12-20T16:46:10;10.40;99.90
12833;DHT22;6483;51.310;4.462;2022-12-20T16:48:38;10.40;99.90
12833;DHT22;6483;51.310;4.462;2022-12-20T16:53:55;10.40;99.90
12833;DHT22;6483;51.310;4.462;2022-12-20T16:56:20;10.40;99.90
12833;DHT22;6483;51.310;4.462;2022-12-20T16:58:46;10.40;99.90
12833;DHT22;6483;51.310;4.462;2022-12-20T17:01:15;10.40;99.90
12833;DHT22;6483;51.310;4.462;2022-12-20T17:03:43;10.50;99.90
12833;DHT22;6483;51.310;4.462;2022-12-20T17:06:11;10.50;99.90
12833;DHT22;6483;51.310;4.462;2022-12-20T17:08:39;10.50;99.90
12833;DHT22;6483;51.310;4.462;2022-12-20T17:11:31;10.50;99.90
12833;DHT22;6483;51.310;4.462;2022-12-20T17:13:58;10.50;99.90
12833;DHT22;6483;51.310;4.462;2022-12-20T17:16:24;10.40;99.90
12833;DHT22;6483;51.310;4.462;2022-12-20T17:18:55;10.40;99.90
12833;DHT22;6483;51.310;4.462;2022-12-20T17:22:12;10.50;99.90
12833;DHT22;6483;51.310;4.462;2022-12-20T17:24:21;10.50;99.90
12833;DHT22;6483;51.310;4.462;2022-12-20T17:26:48;10.40;99.90
12833;DHT22;6483;51.310;4.462;2022-12-20T17:29:14;10.40;99.90
12833;DHT22;6483;51.310;4.462;2022-12-20T17:31:42;10.50;99.90
12833;DHT22;6483;51.310;4.462;2022-12-20T17:36:41;10.40;99.90
12833;DHT22;6483;51.310;4.462;2022-12-20T17:39:08;10.40;99.90
12833;DHT22;6483;51.310;4.462;2022-12-20T17:41:33;10.50;99.90
12833;DHT22;6483;51.310;4.462;2022-12-20T17:44:00;10.50;99.90
12833;DHT22;6483;51.310;4.462;2022-12-20T17:46:30;10.50;99.90
12833;DHT22;6483;51.310;4.462;2022-12-20T17:48:59;10.50;99.90
12833;DHT22;6483;51.310;4.462;2022-12-20T17:51:27;10.50;99.90
12833;DHT22;6483;51.310;4.462;2022-12-20T17:53:55;10.50;99.90
12833;DHT22;6483;51.310;4.462;2022-12-20T17:56:29;10.50;99.90
12833;DHT22;6483;51.310;4.462;2022-12-20T17:58:56;10.50;99.90
12833;DHT22;6483;51.310;4.462;2022-12-20T18:01:28;10.40;99.90
12833;DHT22;6483;51.310;4.462;2022-12-20T18:03:56;10.50;99.90
12833;DHT22;6483;51.310;4.462;2022-12-20T18:06:26;10.50;99.90